Time;durP1;ratioP1;P1;durP2;ratioP2;P2;SDS_P1;SDS_P2;PMS_P1;PMS_P2;Temp;Humidity;BMP_temperature;BMP_pressure;BME280_temperature;BME280_humidity;BME280_pressure;Samples;Min_cycle;Max_cycle;Signal;HPM_P1;HPM_P2
2021/05/23 00:00:21;;;;;;;1.63;0.70;;;;;;;10.88;67.62;96466.50;4960776;28;20077;-58
2021/05/23 00:02:47;;;;;;;1.73;0.70;;;;;;;10.62;70.87;96478.31;4971263;28;20129;-55
2021/05/23 00:05:15;;;;;;;1.23;0.70;;;;;;;10.43;73.08;96473.78;4976518;28;20133;-59
2021/05/23 00:07:52;;;;;;;2.72;1.20;;;;;;;10.30;74.88;96483.34;4981775;28;20136;-57
2021/05/23 00:10:19;;;;;;;4.15;0.52;;;;;;;9.96;75.96;96505.13;4976195;28;20149;-59
2021/05/23 00:12:46;;;;;;;2.10;0.60;;;;;;;9.87;78.54;96519.06;4961664;28;20759;-57
2021/05/23 00:15:14;;;;;;;1.00;0.40;;;;;;;9.66;80.16;96533.16;4958253;28;20035;-59
2021/05/23 00:17:39;;;;;;;0.57;0.50;;;;;;;9.28;83.12;96532.09;4973666;28;20559;-59
2021/05/23 00:20:05;;;;;;;2.65;0.60;;;;;;;9.19;84.90;96551.44;4975102;28;20042;-64
2021/05/23 00:22:31;;;;;;;2.65;0.82;;;;;;;8.99;87.30;96545.22;4964507;28;20100;-59
2021/05/23 00:24:56;;;;;;;1.25;1.02;;;;;;;8.99;87.22;96556.13;4960010;28;20043;-59
2021/05/23 00:27:22;;;;;;;2.50;0.63;;;;;;;8.80;88.33;96561.59;4957229;28;20862;-62
2021/05/23 00:29:47;;;;;;;1.75;0.68;;;;;;;8.52;89.18;96568.03;4960937;28;20042;-63
2021/05/23 00:32:13;;;;;;;0.77;0.70;;;;;;;8.34;89.16;96562.13;4970824;28;20054;-60
2021/05/23 00:34:38;;;;;;;1.73;0.60;;;;;;;8.48;90.43;96566.34;4973043;28;20081;-63
2021/05/23 00:37:04;;;;;;;1.00;0.80;;;;;;;8.19;89.64;96569.22;4971086;28;20049;-67
2021/05/23 00:39:29;;;;;;;5.25;0.73;;;;;;;8.24;89.88;96555.28;4974656;28;20046;-61
2021/05/23 00:41:55;;;;;;;1.02;0.60;;;;;;;8.30;89.67;96566.72;4981286;28;20115;-56
2021/05/23 00:44:21;;;;;;;2.25;1.00;;;;;;;8.27;91.01;96566.66;4966490;28;20045;-60
2021/05/23 00:46:46;;;;;;;2.45;0.85;;;;;;;8.34;90.92;96559.41;4975151;28;20061;-62
2021/05/23 00:49:12;;;;;;;1.55;0.52;;;;;;;8.31;90.75;96570.25;4969965;28;20042;-59
2021/05/23 00:51:37;;;;;;;0.65;0.50;;;;;;;8.28;90.77;96566.28;4977289;28;20140;-56
2021/05/23 00:54:04;;;;;;;1.52;0.77;;;;;;;8.29;91.20;96564.34;4978063;28;20054;-67
2021/05/23 00:56:29;;;;;;;1.95;1.00;;;;;;;8.23;90.85;96564.63;4979399;28;20089;-59
2021/05/23 00:58:55;;;;;;;5.45;1.63;;;;;;;8.20;91.55;96559.88;4972299;28;20077;-60
2021/05/23 01:01:45;;;;;;;1.70;0.90;;;;;;;8.22;92.33;96568.47;4957142;28;20039;-62
2021/05/23 01:04:11;;;;;;;1.20;0.60;;;;;;;8.22;92.20;96573.16;4977227;28;20610;-63
2021/05/23 01:06:37;;;;;;;4.43;0.93;;;;;;;8.19;91.80;96580.13;4978589;28;20126;-60
2021/05/23 01:09:09;;;;;;;1.23;1.08;;;;;;;8.28;92.45;96576.41;4958984;28;20178;-66
2021/05/23 01:12:13;;;;;;;1.27;0.70;;;;;;;8.30;92.85;96579.56;4968714;28;20050;-58
2021/05/23 01:14:54;;;;;;;1.90;0.57;;;;;;;8.42;91.32;96574.03;4980152;28;20054;-58
2021/05/23 01:17:25;;;;;;;0.77;0.60;;;;;;;8.24;93.16;96579.03;4955861;28;20053;-59
2021/05/23 01:20:02;;;;;;;0.60;0.60;;;;;;;8.32;90.78;96577.25;4960206;28;20350;-62
2021/05/23 01:23:01;;;;;;;1.10;0.50;;;;;;;8.24;92.32;96579.03;4957496;28;20519;-61
2021/05/23 01:25:28;;;;;;;2.50;0.57;;;;;;;8.28;92.22;96577.19;4956135;28;20073;-62
2021/05/23 01:27:56;;;;;;;0.85;0.60;;;;;;;8.22;90.57;96584.06;4961280;28;20121;-59
2021/05/23 01:30:30;;;;;;;0.88;0.63;;;;;;;8.28;90.30;96582.63;4952868;28;20049;-58
2021/05/23 01:32:59;;;;;;;0.50;0.50;;;;;;;8.25;90.70;96583.38;4958480;28;20050;-58
2021/05/23 01:35:33;;;;;;;0.80;0.70;;;;;;;8.23;91.66;96586.44;4956307;28;20514;-58
2021/05/23 01:38:00;;;;;;;0.88;0.50;;;;;;;8.20;90.33;96583.63;4964744;28;20130;-59
2021/05/23 01:40:29;;;;;;;0.60;0.60;;;;;;;8.10;89.91;96578.72;4961245;28;20175;-55
2021/05/23 01:42:54;;;;;;;1.00;0.68;;;;;;;8.12;90.22;96581.88;4965000;28;20046;-58
2021/05/23 01:45:21;;;;;;;1.00;0.52;;;;;;;8.09;91.67;96593.50;4960240;28;20035;-62
2021/05/23 01:47:46;;;;;;;0.98;0.60;;;;;;;8.08;92.80;96587.25;4965122;28;20042;-59
2021/05/23 01:50:12;;;;;;;0.60;0.50;;;;;;;7.83;92.51;96584.72;4960367;28;20467;-56
2021/05/23 01:52:55;;;;;;;1.05;0.70;;;;;;;7.78;93.03;96584.19;4984286;28;20082;-62
2021/05/23 01:55:21;;;;;;;0.70;0.57;;;;;;;7.79;93.54;96585.75;4986585;28;20082;-63
2021/05/23 01:57:47;;;;;;;0.98;0.60;;;;;;;7.85;92.85;96584.38;4984445;28;20443;-58
2021/05/23 02:00:15;;;;;;;2.15;0.90;;;;;;;7.83;93.22;96584.72;4973607;28;20045;-62
2021/05/23 02:02:40;;;;;;;2.40;0.70;;;;;;;7.87;92.48;96587.53;4982686;28;20038;-64
2021/05/23 02:05:08;;;;;;;1.05;0.70;;;;;;;7.90;92.57;96586.03;4977026;28;20046;-57
2021/05/23 02:07:33;;;;;;;1.35;0.60;;;;;;;7.91;92.45;96590.34;4983140;28;20072;-61
2021/05/23 02:09:59;;;;;;;1.58;0.60;;;;;;;7.87;92.96;96586.72;4983164;28;20069;-59
2021/05/23 02:12:26;;;;;;;0.75;0.68;;;;;;;7.89;91.67;96584.44;4977731;28;20054;-61
2021/05/23 02:14:52;;;;;;;0.73;0.60;;;;;;;7.82;92.87;96588.56;4985522;28;20077;-57
2021/05/23 02:17:17;;;;;;;0.82;0.60;;;;;;;7.80;92.30;96584.63;4980524;28;20081;-59
2021/05/23 02:19:51;;;;;;;1.40;0.65;;;;;;;7.79;94.95;96589.25;4981583;28;20073;-59
2021/05/23 02:22:17;;;;;;;0.70;0.70;;;;;;;7.89;93.18;96595.34;4975777;28;20397;-59
2021/05/23 02:24:43;;;;;;;0.98;0.43;;;;;;;7.88;93.27;96601.94;4997509;28;20125;-56
2021/05/23 02:27:10;;;;;;;3.53;1.17;;;;;;;7.88;93.16;96597.28;4976540;28;20442;-61
2021/05/23 02:29:35;;;;;;;2.17;0.60;;;;;;;7.82;93.25;96599.47;4968906;28;20484;-60
2021/05/23 02:32:05;;;;;;;1.10;0.60;;;;;;;7.87;93.42;96601.16;4979595;28;20047;-62
2021/05/23 02:34:30;;;;;;;2.38;2.17;;;;;;;7.87;92.36;96594.91;4979961;28;20051;-57
2021/05/23 02:36:58;;;;;;;0.63;0.63;;;;;;;7.82;93.68;96590.50;4964601;28;20046;-56
2021/05/23 02:39:23;;;;;;;1.98;0.60;;;;;;;7.81;92.83;96597.91;4971304;28;20184;-59
2021/05/23 02:41:49;;;;;;;0.82;0.50;;;;;;;7.84;92.55;96591.72;4965188;28;20042;-57
2021/05/23 02:44:14;;;;;;;1.25;1.02;;;;;;;7.91;92.00;96601.25;4960194;28;20042;-59
2021/05/23 02:46:42;;;;;;;1.30;0.70;;;;;;;7.78;92.51;96597.81;4981260;28;20079;-60
2021/05/23 02:49:12;;;;;;;1.40;0.60;;;;;;;7.88;91.60;96593.75;4963354;28;20400;-59
2021/05/23 02:51:38;;;;;;;0.50;0.50;;;;;;;7.83;92.28;96597.53;4969236;28;20078;-58
2021/05/23 02:54:04;;;;;;;0.52;0.52;;;;;;;7.90;91.37;96599.66;4978745;28;20069;-64
2021/05/23 02:56:30;;;;;;;0.98;0.60;;;;;;;7.78;91.35;96603.28;4973922;28;20447;-59
2021/05/23 02:58:55;;;;;;;0.60;0.60;;;;;;;7.83;92.19;96611.97;4964633;28;20158;-58
2021/05/23 03:01:20;;;;;;;0.80;0.50;;;;;;;7.85;91.22;96606.19;4968542;28;20065;-60
2021/05/23 03:03:46;;;;;;;1.45;0.63;;;;;;;7.92;90.73;96611.78;4980364;28;20046;-59
2021/05/23 03:06:11;;;;;;;1.63;0.50;;;;;;;7.91;90.92;96610.22;4956176;28;20047;-59
2021/05/23 03:08:37;;;;;;;0.60;0.60;;;;;;;7.87;90.65;96622.97;4969453;28;20046;-56
2021/05/23 03:11:03;;;;;;;0.60;0.60;;;;;;;7.83;90.43;96627.53;4965520;28;20125;-64
2021/05/23 03:13:28;;;;;;;2.15;0.55;;;;;;;7.75;91.37;96625.78;4975044;28;20071;-61
2021/05/23 03:15:54;;;;;;;0.65;0.60;;;;;;;7.71;91.83;96633.06;4976350;28;20059;-57
2021/05/23 03:18:20;;;;;;;0.68;0.68;;;;;;;7.83;90.16;96636.53;4968377;28;20077;-57
2021/05/23 03:20:45;;;;;;;0.52;0.52;;;;;;;7.72;91.90;96645.53;4975468;28;20113;-55
2021/05/23 03:23:11;;;;;;;1.67;0.60;;;;;;;7.72;91.80;96645.53;4970730;28;20038;-58
2021/05/23 03:25:37;;;;;;;2.83;0.68;;;;;;;7.71;91.39;96642.03;4977727;28;20454;-58
2021/05/23 03:28:05;;;;;;;2.60;0.60;;;;;;;7.52;92.11;96656.31;4974972;28;20054;-64
2021/05/23 03:30:36;;;;;;;0.77;0.70;;;;;;;7.58;92.58;96659.56;4963165;28;20066;-60
2021/05/23 03:33:03;;;;;;;1.80;0.75;;;;;;;7.66;92.60;96664.88;4978599;28;20047;-64
2021/05/23 03:35:28;;;;;;;2.17;0.73;;;;;;;7.72;91.81;96657.22;4958862;28;20500;-58
2021/05/23 03:37:54;;;;;;;1.02;0.70;;;;;;;7.64;92.19;96660.94;4979723;28;20045;-60
2021/05/23 03:40:20;;;;;;;1.58;0.90;;;;;;;7.53;92.26;96666.09;4978942;28;20034;-61
2021/05/23 03:42:47;;;;;;;0.73;0.60;;;;;;;7.54;93.68;96670.38;4980752;28;20042;-61
2021/05/23 03:45:14;;;;;;;2.50;0.60;;;;;;;7.57;93.52;96679.81;4976249;28;20113;-59
2021/05/23 03:47:40;;;;;;;1.13;0.85;;;;;;;7.58;93.33;96673.19;4975472;28;20061;-57
2021/05/23 03:50:08;;;;;;;2.25;0.70;;;;;;;7.64;92.28;96680.00;4973635;28;20034;-63
2021/05/23 03:52:33;;;;;;;1.33;0.50;;;;;;;7.62;91.66;96685.03;4976291;28;20118;-64
2021/05/23 03:54:59;;;;;;;1.48;0.90;;;;;;;7.63;91.77;96692.84;4987554;28;20117;-61
2021/05/23 03:57:25;;;;;;;0.70;0.70;;;;;;;7.71;91.55;96695.78;4973992;28;20049;-57
2021/05/23 03:59:50;;;;;;;2.30;0.80;;;;;;;7.80;91.68;96699.91;4981244;28;20046;-56
2021/05/23 04:02:16;;;;;;;1.00;0.80;;;;;;;7.82;91.95;96699.56;4976896;28;20555;-59
2021/05/23 04:04:56;;;;;;;3.50;0.85;;;;;;;7.67;91.63;96692.94;4979679;28;20518;-55
2021/05/23 04:07:23;;;;;;;1.58;0.60;;;;;;;7.64;90.37;96699.88;4968595;28;20706;-56
2021/05/23 04:09:50;;;;;;;4.32;0.88;;;;;;;7.60;91.02;96703.66;4974208;28;20896;-56
2021/05/23 04:12:26;;;;;;;0.85;0.68;;;;;;;7.64;90.21;96710.78;4972681;28;20070;-61
2021/05/23 04:14:52;;;;;;;2.25;0.70;;;;;;;7.53;91.62;96704.25;4990602;28;20618;-56
2021/05/23 04:17:17;;;;;;;3.80;0.82;;;;;;;7.52;91.23;96705.38;4980541;28;20065;-58
2021/05/23 04:19:43;;;;;;;1.60;0.80;;;;;;;7.57;91.73;96707.84;4975733;28;20050;-58
2021/05/23 04:22:10;;;;;;;3.03;0.90;;;;;;;7.52;91.52;96720.94;4975647;28;20467;-59
2021/05/23 04:24:38;;;;;;;2.63;0.80;;;;;;;7.61;91.38;96721.59;4978740;28;20381;-57
2021/05/23 04:27:04;;;;;;;2.45;0.80;;;;;;;7.67;90.93;96725.66;4971346;28;20046;-61
2021/05/23 04:29:32;;;;;;;3.55;0.80;;;;;;;7.54;91.80;96726.84;4976964;28;20053;-57
2021/05/23 04:31:59;;;;;;;2.60;0.90;;;;;;;7.50;92.16;96734.13;4972900;28;20046;-56
2021/05/23 04:34:25;;;;;;;2.72;0.77;;;;;;;7.45;92.47;96744.13;4951699;28;603228;-61
2021/05/23 04:36:50;;;;;;;1.00;0.73;;;;;;;7.31;93.05;96751.06;4979605;28;20085;-54
2021/05/23 04:39:15;;;;;;;2.13;0.80;;;;;;;7.35;92.62;96743.81;4972782;28;20053;-60
2021/05/23 04:41:41;;;;;;;2.20;1.10;;;;;;;7.34;93.05;96753.91;4979409;28;20144;-62
2021/05/23 04:44:07;;;;;;;1.95;0.88;;;;;;;7.31;92.87;96754.63;4973356;28;20042;-59
2021/05/23 04:46:34;;;;;;;1.80;0.70;;;;;;;7.36;92.96;96759.00;4976091;28;20042;-58
2021/05/23 04:48:59;;;;;;;6.20;1.00;;;;;;;7.30;92.67;96761.19;4978469;28;20042;-58
2021/05/23 04:51:25;;;;;;;3.70;0.90;;;;;;;7.31;92.67;96767.41;4974134;28;20049;-59
2021/05/23 04:53:50;;;;;;;4.15;0.85;;;;;;;7.35;92.71;96769.13;4975783;28;20456;-59
2021/05/23 04:56:16;;;;;;;3.20;0.70;;;;;;;7.48;93.10;96780.78;4967044;28;20034;-60
2021/05/23 04:58:41;;;;;;;3.83;0.90;;;;;;;7.36;92.90;96778.09;4979280;28;20141;-61
2021/05/23 05:01:06;;;;;;;1.67;0.85;;;;;;;7.23;93.68;96772.66;4967370;28;20501;-58
2021/05/23 05:03:32;;;;;;;2.45;0.88;;;;;;;7.31;92.17;96767.41;4977704;28;20395;-59
2021/05/23 05:05:57;;;;;;;2.60;1.00;;;;;;;7.21;93.65;96774.16;4976814;28;20050;-62
2021/05/23 05:08:22;;;;;;;7.25;1.20;;;;;;;7.40;93.46;96787.16;4956874;28;20684;-58
2021/05/23 05:10:48;;;;;;;1.52;1.17;;;;;;;7.36;93.09;96787.03;4962226;28;20039;-60
2021/05/23 05:13:13;;;;;;;2.63;1.00;;;;;;;7.47;93.40;96795.53;4972545;28;20047;-59
2021/05/23 05:15:38;;;;;;;3.45;0.98;;;;;;;7.61;92.17;96798.69;4978664;28;20587;-62
2021/05/23 05:18:04;;;;;;;2.67;0.85;;;;;;;7.71;91.59;96802.88;4976401;28;20400;-63
2021/05/23 05:20:30;;;;;;;1.77;0.90;;;;;;;7.78;92.04;96813.22;4979323;28;20136;-59
2021/05/23 05:22:55;;;;;;;6.13;0.90;;;;;;;7.48;90.73;96805.31;4982823;28;20388;-59
2021/05/23 05:25:21;;;;;;;1.35;0.90;;;;;;;7.45;92.46;96809.53;4972445;28;20031;-61
2021/05/23 05:27:47;;;;;;;3.40;1.10;;;;;;;7.62;92.42;96813.91;4981675;28;20066;-59
2021/05/23 05:30:13;;;;;;;2.67;0.90;;;;;;;7.72;91.92;96809.13;4977387;28;20038;-58
2021/05/23 05:32:39;;;;;;;4.05;0.80;;;;;;;7.68;91.97;96810.97;4977888;28;20062;-60
2021/05/23 05:35:05;;;;;;;4.55;0.90;;;;;;;7.80;91.27;96811.72;4972448;28;20423;-65
2021/05/23 05:37:30;;;;;;;2.25;1.02;;;;;;;7.94;91.03;96813.25;4976149;28;20049;-59
2021/05/23 05:39:56;;;;;;;2.55;0.93;;;;;;;8.11;89.53;96823.88;4983087;28;20389;-59
2021/05/23 05:42:21;;;;;;;2.60;0.80;;;;;;;8.20;89.22;96821.78;4975988;28;20058;-65
2021/05/23 05:44:47;;;;;;;1.65;0.77;;;;;;;8.12;90.41;96833.66;4981879;28;20038;-61
2021/05/23 05:47:13;;;;;;;2.40;0.80;;;;;;;8.21;89.27;96833.50;4968783;28;20034;-61
2021/05/23 05:49:38;;;;;;;2.03;0.95;;;;;;;8.20;89.01;96838.16;4983107;28;20173;-61
2021/05/23 05:52:06;;;;;;;3.13;1.33;;;;;;;8.42;87.29;96830.59;4971482;28;20045;-65
2021/05/23 05:54:31;;;;;;;2.10;0.73;;;;;;;8.29;87.39;96835.28;4991799;28;20042;-62
2021/05/23 05:56:57;;;;;;;1.42;0.70;;;;;;;8.35;86.52;96836.59;4986193;28;20038;-57
2021/05/23 05:59:22;;;;;;;1.05;0.63;;;;;;;8.28;86.54;96833.69;4978956;28;20463;-61
2021/05/23 06:01:48;;;;;;;1.42;0.70;;;;;;;8.29;87.41;96837.22;4965306;28;20058;-56
2021/05/23 06:04:13;;;;;;;1.35;0.70;;;;;;;8.15;87.44;96853.97;4968577;28;20053;-58
2021/05/23 06:06:39;;;;;;;0.52;0.52;;;;;;;8.14;88.34;96853.19;4975304;28;20588;-59
2021/05/23 06:09:05;;;;;;;1.67;0.77;;;;;;;8.00;88.44;96858.25;4979665;28;20065;-65
2021/05/23 06:11:30;;;;;;;4.15;0.63;;;;;;;8.04;88.48;96862.66;4974781;28;20050;-59
2021/05/23 06:13:56;;;;;;;1.65;0.65;;;;;;;8.06;86.34;96865.03;4981417;28;20124;-59
2021/05/23 06:16:21;;;;;;;1.05;0.70;;;;;;;8.18;86.26;96865.00;4964538;28;20054;-59
2021/05/23 06:18:46;;;;;;;0.98;0.50;;;;;;;8.25;86.00;96856.22;4963225;28;20598;-60
2021/05/23 06:21:12;;;;;;;11.30;3.60;;;;;;;8.12;85.72;96873.78;4974181;28;20042;-61
2021/05/23 06:23:37;;;;;;;1.73;0.60;;;;;;;8.09;87.92;96869.81;4979148;28;20101;-61
2021/05/23 06:26:04;;;;;;;2.72;0.60;;;;;;;8.11;88.23;96877.66;4978602;28;20500;-63
2021/05/23 06:28:29;;;;;;;2.30;0.57;;;;;;;8.21;86.46;96869.78;4976818;28;20503;-61
2021/05/23 06:30:55;;;;;;;0.80;0.70;;;;;;;8.24;86.55;96871.78;4975440;28;20053;-58
2021/05/23 06:33:20;;;;;;;0.57;0.50;;;;;;;8.35;87.26;96876.75;4957298;28;20047;-61
2021/05/23 06:35:46;;;;;;;1.25;0.52;;;;;;;8.39;87.42;96885.84;4971117;28;20078;-59
2021/05/23 06:38:11;;;;;;;1.23;0.77;;;;;;;8.58;87.40;96885.22;4969531;28;20519;-61
2021/05/23 06:40:37;;;;;;;2.22;0.80;;;;;;;8.75;86.25;96890.38;4982077;28;20495;-61
2021/05/23 06:43:02;;;;;;;1.23;0.60;;;;;;;8.79;84.86;96893.19;4973498;28;20043;-63
2021/05/23 06:45:28;;;;;;;2.55;0.80;;;;;;;8.97;85.05;96902.66;4972641;28;20519;-60
2021/05/23 06:47:54;;;;;;;1.27;0.68;;;;;;;8.70;83.63;96911.69;4977489;28;20042;-60
2021/05/23 06:50:19;;;;;;;0.57;0.57;;;;;;;8.67;84.38;96901.44;4971837;28;20042;-59
2021/05/23 06:52:45;;;;;;;1.30;0.70;;;;;;;8.44;86.05;96915.63;4967611;28;20050;-59
2021/05/23 06:55:11;;;;;;;2.05;0.70;;;;;;;8.61;84.46;96917.28;4974508;28;20034;-59
2021/05/23 06:57:37;;;;;;;0.50;0.50;;;;;;;8.54;85.29;96912.44;4971761;28;20568;-58
2021/05/23 07:00:07;;;;;;;1.98;0.50;;;;;;;8.49;85.73;96912.66;4979675;28;20049;-61
2021/05/23 07:02:32;;;;;;;2.40;0.80;;;;;;;8.45;86.16;96914.50;4969990;28;20046;-57
2021/05/23 07:04:57;;;;;;;1.67;0.75;;;;;;;8.74;83.40;96916.09;4980539;28;20046;-59
2021/05/23 07:07:23;;;;;;;1.02;0.63;;;;;;;9.04;81.88;96901.22;4967437;28;20045;-59
2021/05/23 07:09:48;;;;;;;1.70;0.70;;;;;;;9.18;81.12;96909.78;4975717;28;20042;-60
2021/05/23 07:12:13;;;;;;;1.02;0.70;;;;;;;9.28;82.70;96919.41;4960520;28;20043;-59
2021/05/23 07:14:39;;;;;;;1.85;1.25;;;;;;;9.33;82.61;96924.63;4962385;28;20101;-58
2021/05/23 07:17:04;;;;;;;1.10;0.60;;;;;;;9.87;79.41;96914.94;4973500;28;20034;-63
2021/05/23 07:19:30;;;;;;;1.00;0.60;;;;;;;9.97;78.53;96911.63;4976162;28;20049;-60
2021/05/23 07:21:55;;;;;;;0.90;0.60;;;;;;;10.06;77.26;96922.38;4971211;28;20496;-59
2021/05/23 07:24:21;;;;;;;1.00;0.40;;;;;;;10.48;76.34;96922.53;4975081;28;20053;-58
2021/05/23 07:26:46;;;;;;;1.70;0.82;;;;;;;10.54;76.09;96925.00;4973807;28;20058;-57
2021/05/23 07:29:11;;;;;;;3.33;0.75;;;;;;;10.48;77.18;96921.75;4974986;28;20092;-61
2021/05/23 07:31:37;;;;;;;0.50;0.50;;;;;;;10.41;76.83;96924.34;4982137;28;20046;-56
2021/05/23 07:34:03;;;;;;;2.55;0.60;;;;;;;10.78;74.69;96930.13;4975847;28;20575;-63
2021/05/23 07:36:28;;;;;;;0.57;0.47;;;;;;;10.40;77.98;96933.69;4971939;28;20154;-54
2021/05/23 07:38:54;;;;;;;0.43;0.43;;;;;;;10.99;74.32;96928.97;4978751;28;20077;-57
2021/05/23 07:41:20;;;;;;;1.83;0.88;;;;;;;11.11;75.79;96928.81;4976347;28;20660;-57
2021/05/23 07:43:45;;;;;;;1.85;0.50;;;;;;;11.70;70.58;96925.84;4981560;28;20041;-59
2021/05/23 07:46:11;;;;;;;1.77;0.50;;;;;;;12.66;68.11;96931.09;4969947;28;20109;-62
2021/05/23 07:48:36;;;;;;;1.13;0.60;;;;;;;12.76;65.83;96922.19;4976428;28;20061;-61
2021/05/23 07:51:02;;;;;;;2.10;0.50;;;;;;;12.44;66.81;96928.09;4973885;28;20415;-64
2021/05/23 07:53:28;;;;;;;3.05;0.50;;;;;;;13.06;62.76;96933.13;4973417;28;20054;-59
2021/05/23 07:55:54;;;;;;;1.73;0.50;;;;;;;12.94;65.11;96919.63;4979175;28;20038;-58
2021/05/23 07:58:20;;;;;;;1.75;0.50;;;;;;;12.73;64.92;96925.69;4971185;28;20461;-56
2021/05/23 08:00:46;;;;;;;0.93;0.40;;;;;;;14.70;58.23;96918.19;4965053;28;20053;-61
2021/05/23 08:03:11;;;;;;;1.42;0.50;;;;;;;15.29;57.33;96917.94;4957013;28;20039;-59
2021/05/23 08:05:36;;;;;;;1.25;0.40;;;;;;;14.61;57.65;96926.03;4977542;28;20054;-59
2021/05/23 08:08:05;;;;;;;2.10;0.65;;;;;;;14.31;58.31;96925.09;4972917;28;20049;-64
2021/05/23 08:10:30;;;;;;;1.73;1.10;;;;;;;14.13;57.98;96926.94;4981262;28;20213;-60
2021/05/23 08:12:55;;;;;;;4.40;0.60;;;;;;;14.66;57.48;96931.97;4970135;28;20097;-58
2021/05/23 08:15:21;;;;;;;1.10;0.45;;;;;;;14.47;56.34;96941.28;4979543;28;20139;-57
2021/05/23 08:17:46;;;;;;;0.77;0.50;;;;;;;14.69;56.71;96925.69;4983399;28;20046;-59
2021/05/23 08:20:14;;;;;;;1.00;0.30;;;;;;;14.85;53.86;96930.81;4978636;28;20084;-58
2021/05/23 08:22:40;;;;;;;1.33;0.70;;;;;;;13.89;56.59;96948.41;4987135;28;20042;-60
2021/05/23 08:25:07;;;;;;;15.43;11.30;;;;;;;14.12;55.88;96953.69;4981328;28;20072;-64
2021/05/23 08:27:32;;;;;;;33.08;19.35;;;;;;;15.35;52.67;96952.25;4982133;28;20108;-57
2021/05/23 08:29:58;;;;;;;20.15;8.23;;;;;;;16.33;52.39;96956.59;4980237;28;20046;-60
2021/05/23 08:32:23;;;;;;;2.58;1.15;;;;;;;15.68;51.57;96945.56;4967753;28;20073;-58
2021/05/23 08:34:50;;;;;;;8.23;4.53;;;;;;;14.39;55.94;96950.72;4961027;28;20142;-60
2021/05/23 08:37:16;;;;;;;2.95;0.50;;;;;;;13.99;55.13;96955.19;4961374;28;20569;-60
2021/05/23 08:39:43;;;;;;;7.25;4.05;;;;;;;14.37;54.67;96952.25;4979772;28;20137;-57
2021/05/23 08:42:09;;;;;;;2.65;0.80;;;;;;;14.04;54.94;96954.81;4966358;28;20035;-65
2021/05/23 08:44:36;;;;;;;3.42;0.88;;;;;;;14.94;54.47;96954.50;4976688;28;20077;-56
2021/05/23 08:47:01;;;;;;;1.23;0.90;;;;;;;15.06;53.20;96956.91;4977582;28;20422;-58
2021/05/23 08:49:28;;;;;;;3.03;0.60;;;;;;;16.28;50.66;96962.53;4967730;28;20050;-54
2021/05/23 08:51:54;;;;;;;3.05;0.57;;;;;;;16.51;47.95;96941.91;4967518;28;20057;-61
2021/05/23 08:54:20;;;;;;;5.47;1.45;;;;;;;15.95;49.65;96942.41;4963449;28;20046;-61
2021/05/23 08:56:48;;;;;;;5.43;2.08;;;;;;;14.58;51.63;96944.13;4985270;28;20116;-56
2021/05/23 08:59:15;;;;;;;2.78;0.60;;;;;;;14.19;52.35;96944.69;4980225;28;20042;-56
2021/05/23 09:01:42;;;;;;;1.73;0.32;;;;;;;14.54;52.87;96951.56;4983493;28;20042;-56
2021/05/23 09:04:09;;;;;;;2.35;0.50;;;;;;;13.66;54.06;96940.38;4970923;28;20042;-62
2021/05/23 09:06:40;;;;;;;2.00;0.57;;;;;;;13.64;54.89;96944.69;4981392;28;20513;-59
2021/05/23 09:09:07;;;;;;;2.40;0.73;;;;;;;13.55;54.55;96945.78;4975246;28;20039;-57
2021/05/23 09:11:34;;;;;;;4.50;0.57;;;;;;;13.78;53.94;96958.56;4976108;28;20051;-55
2021/05/23 09:14:00;;;;;;;2.65;0.60;;;;;;;14.55;52.51;96953.16;4982232;28;20559;-61
2021/05/23 09:16:25;;;;;;;2.80;0.80;;;;;;;14.87;50.01;96964.34;4979048;28;20084;-55
2021/05/23 09:18:57;;;;;;;1.90;0.50;;;;;;;14.71;51.26;96956.41;4973940;28;20129;-54
2021/05/23 09:21:27;;;;;;;1.38;0.40;;;;;;;15.27;51.23;96961.69;4976805;28;20065;-56
2021/05/23 09:24:08;;;;;;;1.75;0.57;;;;;;;14.86;51.21;96964.72;4980722;28;20105;-54
2021/05/23 09:26:40;;;;;;;2.03;0.50;;;;;;;15.22;51.26;96965.63;4979883;28;20058;-58
2021/05/23 09:29:15;;;;;;;5.45;0.68;;;;;;;15.71;51.38;96968.06;4967244;28;20156;-61
2021/05/23 09:31:41;;;;;;;2.03;0.60;;;;;;;13.99;55.43;96959.88;4982320;28;20077;-58
2021/05/23 09:34:08;;;;;;;2.38;0.60;;;;;;;13.98;55.63;96975.63;4970217;28;20042;-63
2021/05/23 09:36:47;;;;;;;0.70;0.40;;;;;;;14.58;54.35;96971.69;4978372;28;20050;-60
2021/05/23 09:39:13;;;;;;;1.47;0.50;;;;;;;14.70;54.22;96976.88;4971678;28;20129;-57
2021/05/23 09:41:39;;;;;;;5.57;0.60;;;;;;;14.46;54.97;96972.78;4974226;28;20906;-55
2021/05/23 09:44:22;;;;;;;1.67;0.75;;;;;;;14.56;53.79;96970.47;4965626;28;20070;-61
2021/05/23 09:46:59;;;;;;;2.28;0.50;;;;;;;14.60;53.79;96966.56;4964055;28;20054;-55
2021/05/23 09:49:24;;;;;;;1.08;0.43;;;;;;;14.60;53.55;96960.28;4965432;28;20269;-54
2021/05/23 09:51:55;;;;;;;1.95;0.50;;;;;;;14.62;52.66;96957.91;4993138;28;20046;-56
2021/05/23 09:54:23;;;;;;;1.25;0.47;;;;;;;14.73;49.49;96958.78;4972942;28;20043;-58
2021/05/23 09:56:49;;;;;;;1.10;0.47;;;;;;;15.04;51.99;96960.06;4979293;28;20046;-55
2021/05/23 09:59:29;;;;;;;2.35;0.65;;;;;;;15.65;48.57;96960.16;4976107;28;20061;-60
2021/05/23 10:02:06;;;;;;;2.70;0.70;;;;;;;15.79;46.44;96962.19;4981469;28;20034;-56
2021/05/23 10:04:31;;;;;;;1.85;0.40;;;;;;;15.38;48.99;96956.19;4968276;28;20074;-59
2021/05/23 10:07:05;;;;;;;3.70;0.70;;;;;;;15.42;48.23;96962.50;4974283;28;20085;-61
2021/05/23 10:09:31;;;;;;;0.95;0.47;;;;;;;15.41;47.78;96960.91;4979327;28;20134;-62
2021/05/23 10:11:58;;;;;;;1.42;0.40;;;;;;;15.28;48.64;96966.81;4976088;28;20188;-59
2021/05/23 10:14:24;;;;;;;1.17;0.40;;;;;;;15.16;48.47;96969.94;4968417;28;20761;-55
2021/05/23 10:16:51;;;;;;;1.30;0.40;;;;;;;14.95;49.83;96973.44;4986168;28;20046;-60
2021/05/23 10:19:25;;;;;;;1.65;0.65;;;;;;;14.39;50.29;96967.25;4965264;28;20035;-58
2021/05/23 10:21:51;;;;;;;2.75;0.65;;;;;;;14.48;51.28;96975.16;4982855;28;20158;-61
2021/05/23 10:24:24;;;;;;;1.30;0.40;;;;;;;13.93;54.09;96970.47;4971051;28;20039;-59
2021/05/23 10:26:54;;;;;;;3.17;0.40;;;;;;;14.65;52.30;96973.69;4973208;28;20047;-57
2021/05/23 10:29:19;;;;;;;3.15;0.55;;;;;;;14.67;50.52;96983.13;4978900;28;20041;-56
2021/05/23 10:31:45;;;;;;;3.30;0.57;;;;;;;14.81;50.79;96982.44;4996218;28;20046;-55
2021/05/23 10:34:10;;;;;;;2.20;0.40;;;;;;;14.84;52.16;96986.38;4969463;28;20122;-58
2021/05/23 10:36:40;;;;;;;2.25;0.65;;;;;;;15.06;51.11;96978.97;4974798;28;20042;-60
2021/05/23 10:39:14;;;;;;;1.35;0.65;;;;;;;15.64;49.64;96972.38;4976848;28;20066;-55
2021/05/23 10:41:41;;;;;;;1.30;0.40;;;;;;;16.67;48.08;96974.66;4981242;28;20476;-58
2021/05/23 10:44:09;;;;;;;1.10;0.50;;;;;;;17.43;44.84;96964.84;4974492;28;20474;-59
2021/05/23 10:46:50;;;;;;;2.38;0.40;;;;;;;17.29;44.43;96964.91;4980150;28;20050;-59
2021/05/23 10:49:16;;;;;;;4.28;0.43;;;;;;;16.96;44.44;96969.81;4966001;28;20086;-58
2021/05/23 10:51:55;;;;;;;5.40;1.85;;;;;;;16.47;43.28;96974.31;4964021;28;20050;-54
2021/05/23 10:54:21;;;;;;;1.50;0.30;;;;;;;16.18;44.33;96957.78;4957165;28;20512;-59
2021/05/23 10:56:46;;;;;;;0.82;0.30;;;;;;;16.11;44.38;96955.03;4961706;28;20290;-54
2021/05/23 10:59:14;;;;;;;2.33;0.47;;;;;;;15.85;45.75;96959.81;4961426;28;20047;-59
2021/05/23 11:02:00;;;;;;;1.77;0.40;;;;;;;15.86;43.66;96959.41;4972558;28;20057;-56
2021/05/23 11:04:49;;;;;;;2.35;0.60;;;;;;;15.95;42.96;96960.97;4980722;28;20073;-57
2021/05/23 11:07:14;;;;;;;1.37;0.50;;;;;;;16.35;42.74;96956.97;4987533;28;20043;-60
2021/05/23 11:09:43;;;;;;;1.45;0.50;;;;;;;16.23;43.37;96954.63;4982915;28;20526;-58
2021/05/23 11:12:11;;;;;;;1.27;0.30;;;;;;;16.28;42.99;96948.69;4964224;28;20046;-55
2021/05/23 11:14:37;;;;;;;0.52;0.38;;;;;;;16.32;42.65;96954.22;4975889;28;20052;-56
2021/05/23 11:17:08;;;;;;;3.20;0.57;;;;;;;16.18;43.76;96957.78;4969275;28;20051;-64
2021/05/23 11:19:33;;;;;;;0.93;0.32;;;;;;;16.54;42.82;96960.47;4978490;28;20125;-59
2021/05/23 11:21:59;;;;;;;1.00;0.30;;;;;;;16.09;43.21;96960.19;4982360;28;20133;-60
2021/05/23 11:24:29;;;;;;;1.33;0.40;;;;;;;15.44;43.68;96957.38;4979320;28;20133;-55
2021/05/23 11:26:56;;;;;;;3.63;0.90;;;;;;;15.70;45.14;96961.75;4989861;28;20490;-55
2021/05/23 11:29:25;;;;;;;2.05;0.80;;;;;;;16.30;45.24;96954.63;4975935;28;20140;-57
2021/05/23 11:31:50;;;;;;;2.17;0.60;;;;;;;16.64;42.90;96959.66;4975233;28;20038;-56
2021/05/23 11:34:19;;;;;;;2.63;0.63;;;;;;;16.09;43.71;96957.41;4976368;28;20050;-60
2021/05/23 11:36:44;;;;;;;1.10;0.40;;;;;;;16.29;46.19;96966.84;4982656;28;20042;-59
2021/05/23 11:39:17;;;;;;;0.55;0.35;;;;;;;15.43;48.61;96964.88;4975463;28;20453;-59